Latest Coastal Weather Observations for Low Head

IDV60701

Issued at 6:01 pm EST Wednesday 18 September 2019 (issued every 10 minutes, with the page automatically refreshed every 10 minutes)

About coastal observations | Map of coastal stations | Coastal observations for VIC | Marine services | Other Formats
Station Details ID: 091293 Name: LOW HEAD Lat: -41.05 Lon: 146.79 Height: 3.0 m
Data from the previous 72 hours. | See also: Recent months at Low Head
Date/Time
EST
Wind Sea
Height
m
Swell Vis
km
Cloud Weather Temp
°C
Press
hPa
Rain since
9am
mm
Dir  Spd
kts
Gust
kts
Height
m
Period
s
Dir
18/05:30pm NE 10 12 - - - - - - - 11.9 1026.9 0.0
18/05:00pm NE 10 12 - - - - - - - 12.1 1026.9 0.0
18/04:30pm NE 10 11 - - - - - - - 12.5 1026.9 0.0
18/04:00pm NE 9 10 - - - - - - - 12.6 1027.1 0.0
18/03:30pm NE 9 10 - - - - - - - 13.0 1027.3 0.0
18/03:00pm NE 7 9 - - - - - - - 13.0 1027.2 0.0
18/02:30pm NE 7 8 - - - - - - - 13.0 1027.6 0.0
18/02:00pm NNE 7 7 - - - - - - - 12.9 1027.6 0.0
18/01:30pm NE 7 8 - - - - - - - 12.1 1027.8 0.0
18/01:00pm NNE 5 6 - - - - - - - 11.8 1028.0 0.0
18/12:30pm N 5 6 - - - - - - - 11.5 1028.3 0.0
18/12:00pm NNW 3 5 - - - - - - - 12.3 1028.8 0.0
18/11:30am NW 4 5 - - - - - - - 12.1 1029.2 0.0
18/11:00am N 5 6 - - - - - - - 12.0 1029.5 0.0
18/10:30am NNW 3 4 - - - - - - - 11.8 1029.5 0.0
18/10:00am SSW 4 5 - - - - - - - 10.4 1029.6 0.0
18/09:30am S 5 7 - - - - - - - 10.3 1029.7 0.0
18/09:00am S 6 7 - - - - - - - 9.6 1029.8 0.0
18/08:30am S 5 5 - - - - - - - 8.7 1029.7 0.0
18/08:00am SSE 7 9 - - - - - - - 6.6 1029.6 0.0
18/07:30am SSE 9 10 - - - - - - - 5.3 1029.4 0.0
18/07:00am SSE 9 10 - - - - - - - 4.6 1029.3 0.0
18/06:30am SSE 8 10 - - - - - - - 4.4 1029.1 0.0
18/06:00am SSE 9 10 - - - - - - - 4.5 1029.0 0.0
18/05:30am SSE 8 9 - - - - - - - 4.7 1029.0 0.0
18/05:00am SSE 6 7 - - - - - - - 5.5 1028.9 0.0
18/04:30am SE 5 6 - - - - - - - 6.5 1029.0 0.0
18/04:00am SW 6 11 - - - - - - - 8.6 1029.1 0.0
18/03:30am WNW 10 12 - - - - - - - 9.1 1029.0 0.0
18/03:00am WNW 10 13 - - - - - - - 9.1 1029.2 0.0
18/02:30am WNW 11 14 - - - - - - - 9.2 1029.4 0.0
18/02:00am WNW 12 14 - - - - - - - 9.2 1029.4 0.0
18/01:30am WNW 13 16 - - - - - - - 9.2 1029.5 0.0
18/01:00am WNW 13 15 - - - - - - - 9.1 1029.6 0.0
18/12:30am WNW 15 17 - - - - - - - 9.2 1029.6 0.0
18/12:00am WNW 15 19 - - - - - - - 9.3 1029.5 0.0
 
Date/Time
EST
Wind Sea
Height
m
Swell Vis
km
Cloud Weather Temp
°C
Press
hPa
Rain since
9am
mm
Dir  Spd
kts
Gust
kts
Height
m
Period
s
Dir
17/11:30pm WNW 15 17 - - - - - - - 9.4 1029.4 0.0
17/11:00pm WNW 15 18 - - - - - - - 9.6 1029.3 0.0
17/10:30pm WNW 16 18 - - - - - - - 9.7 1029.2 0.0
17/10:00pm WNW 16 18 - - - - - - - 9.9 1029.0 0.0
17/09:30pm WNW 16 18 - - - - - - - 10.1 1028.8 0.0
17/09:00pm WNW 17 19 - - - - - - - 10.2 1028.8 0.0
17/08:30pm WNW 18 20 - - - - - - - 10.2 1028.8 0.0
17/08:00pm NW 16 20 - - - - - - - 10.1 1028.8 0.0
17/07:30pm NW 16 19 - - - - - - - 10.1 1028.6 0.0
17/07:00pm NW 15 19 - - - - - - - 10.0 1028.5 0.0
17/06:30pm NW 15 18 - - - - - - - 10.1 1028.3 0.0
17/06:00pm WNW 16 19 - - - - - - - 10.1 1028.1 0.0
17/05:30pm NW 15 18 - - - - - - - 10.4 1027.8 0.0
17/05:00pm NW 14 18 - - - - - - - 10.5 1027.8 0.0
17/04:30pm NW 14 17 - - - - - - - 11.0 1027.7 0.0
17/04:00pm NW 14 17 - - - - - - - 11.0 1027.7 0.0
17/03:30pm NNW 14 16 - - - - - - - 10.9 1027.6 0.0
17/03:00pm NW 13 16 - - - - - - - 11.1 1027.7 0.0
17/02:30pm NW 13 15 - - - - - - - 11.3 1028.0 0.0
17/02:00pm NW 13 15 - - - - - - - 11.7 1028.0 0.0
17/01:30pm NW 12 15 - - - - - - - 11.7 1028.2 0.0
17/01:00pm NW 10 13 - - - - - - - 11.2 1028.3 0.0
17/12:30pm NW 10 12 - - - - - - - 10.2 1028.5 0.0
17/12:00pm NW 10 12 - - - - - - - 10.1 1028.6 0.0
17/11:30am NW 7 10 - - - - - - - 10.9 1028.6 0.0
17/11:00am NNW 7 8 - - - - - - - 9.9 1028.7 0.0
17/10:30am N 5 7 - - - - - - - 9.7 1028.9 0.0
17/10:00am NNW 4 5 - - - - - - - 9.4 1028.9 0.0
17/09:30am SSW 3 4 - - - - - - - 7.0 1029.1 0.0
17/09:00am S 7 9 - - - - - - - 6.5 1028.9 0.0
17/08:30am S 8 9 - - - - - - - 5.6 1028.7 0.0
17/08:00am SSE 9 10 - - - - - - - 4.6 1028.4 0.0
17/07:30am SSE 7 9 - - - - - - - 3.2 1028.0 0.0
17/07:00am SSE 9 10 - - - - - - - 2.6 1027.6 0.0
17/06:30am SSE 9 10 - - - - - - - 1.5 1027.3 0.0
17/06:00am SSE 9 10 - - - - - - - 1.8 1026.9 0.0
17/05:30am SSE 9 9 - - - - - - - 2.3 1026.5 0.0
17/05:00am SSE 8 9 - - - - - - - 2.5 1026.3 0.0
17/04:30am SSE 7 8 - - - - - - - 2.8 1026.2 0.0
17/04:00am S 6 7 - - - - - - - 3.4 1026.1 0.0
17/03:30am SE 6 7 - - - - - - - 2.9 1025.8 0.0
17/03:00am SSE 5 6 - - - - - - - 3.5 1025.8 0.0
17/02:30am SSE 7 8 - - - - - - - 3.2 1025.8 0.0
17/02:00am SSE 7 8 - - - - - - - 3.8 1026.1 0.0
17/01:30am SSE 3 5 - - - - - - - 4.3 1026.1 0.0
17/01:00am SSE 5 7 - - - - - - - 5.0 1026.1 0.0
17/12:30am SSE 7 8 - - - - - - - 4.5 1025.9 0.0
17/12:00am SSE 6 6 - - - - - - - 5.3 1025.7 0.0
 
Date/Time
EST
Wind Sea
Height
m
Swell Vis
km
Cloud Weather Temp
°C
Press
hPa
Rain since
9am
mm
Dir  Spd
kts
Gust
kts
Height
m
Period
s
Dir
16/11:30pm SSW 5 6 - - - - - - - 6.6 1025.5 0.0
16/11:00pm SSW 6 7 - - - - - - - 6.4 1025.6 0.0
16/10:30pm SSW 7 8 - - - - - - - 7.6 1025.2 0.0
16/10:00pm S 6 6 - - - - - - - 7.7 1025.0 0.0
16/09:30pm SW 9 11 - - - - - - - 7.9 1024.8 0.0
16/09:00pm SSW 5 7 - - - - - - - 7.2 1024.5 0.0
16/08:30pm SSW 7 8 - - - - - - - 7.9 1024.3 0.0
16/08:00pm SSW 8 9 - - - - - - - 8.2 1023.9 0.0
16/07:30pm SW 9 10 - - - - - - - 8.6 1023.3 0.0
16/07:00pm SW 10 11 - - - - - - - 9.0 1022.4 0.0
16/06:30pm SW 10 12 - - - - - - - 9.6 1021.6 0.0
16/06:00pm SSW 11 13 - - - - - - - 10.4 1021.0 0.0
16/05:30pm S 11 13 - - - - - - - 10.9 1020.3 0.0
16/05:00pm SSW 12 16 - - - - - - - 11.4 1019.8 0.0
16/04:30pm SW 15 17 - - - - - - - 11.6 1019.3 0.0
16/04:00pm SW 21 26 - - - - - - - 11.5 1018.7 0.0
16/03:40pm WSW 20 26 - - - - - - - 11.8 1018.3 0.0
16/03:30pm WSW 19 25 - - - - - - - 11.9 1018.1 0.0
16/03:00pm SW 12 16 - - - - - - - 12.4 1017.8 0.0
16/02:30pm WSW 18 23 - - - - - - - 11.9 1017.5 0.0
16/02:00pm WSW 14 19 - - - - - - - 12.6 1017.2 0.0
16/01:30pm SW 16 21 - - - - - - - 12.2 1016.9 0.0
16/01:00pm W 19 24 - - - - - - - 11.4 1016.8 0.0
16/12:30pm W 18 22 - - - - - - - 11.5 1016.7 0.0
16/12:00pm W 18 21 - - - - - - - 11.4 1016.6 0.0
16/11:30am WSW 21 25 - - - - - - - 11.2 1016.3 0.0
16/11:00am WSW 16 22 - - - - - - - 10.8 1016.0 0.0
16/10:30am SW 22 29 - - - - - - - 10.8 1015.7 0.0
16/10:00am SW 20 26 - - - - - - - 10.4 1015.3 0.0
16/09:30am SW 16 22 - - - - - - - 10.3 1015.1 0.0
16/09:00am WSW 19 24 - - - - - - - 9.8 1014.7 0.2
16/08:30am WSW 20 24 - - - - - - - 9.2 1013.9 0.2
16/08:00am WSW 23 26 - - - - - - - 8.9 1013.3 0.2
16/07:30am WSW 23 27 - - - - - - - 9.0 1012.9 0.2
16/07:00am W 24 28 - - - - - - - 9.1 1012.6 0.2
16/06:30am WSW 23 28 - - - - - - - 9.0 1012.1 0.2
16/06:00am W 28 33 - - - - - - - 9.1 1011.3 0.2
16/05:30am W 30 35 - - - - - - - 9.4 1010.6 0.2
16/05:00am W 28 33 - - - - - - - 9.9 1010.0 0.2
16/04:30am W 28 36 - - - - - - - 10.1 1009.3 0.2
16/04:00am W 31 38 - - - - - - - 10.3 1008.5 0.2
16/03:30am W 28 33 - - - - - - - 10.4 1008.2 0.2
16/03:00am W 28 35 - - - - - - - 10.3 1008.0 0.2
16/02:30am W 27 32 - - - - - - - 10.5 1008.2 0.2
16/02:00am W 26 32 - - - - - - - 10.4 1008.3 0.2
16/01:30am W 26 32 - - - - - - - 10.9 1008.5 0.2
16/01:00am WNW 24 30 - - - - - - - 10.6 1008.6 0.2
16/12:30am WNW 23 28 - - - - - - - 10.6 1008.5 0.2
16/12:00am WNW 26 30 - - - - - - - 10.7 1009.0 0.2
 
Date/Time
EST
Wind Sea
Height
m
Swell Vis
km
Cloud Weather Temp
°C
Press
hPa
Rain since
9am
mm
Dir  Spd
kts
Gust
kts
Height
m
Period
s
Dir
15/11:30pm W 23 27 - - - - - - - 10.9 1009.1 0.2
15/11:00pm W 24 29 - - - - - - - 10.7 1009.0 0.2
15/10:30pm W 22 25 - - - - - - - 11.0 1009.1 0.2
15/10:00pm W 22 26 - - - - - - - 11.0 1008.9 0.2
15/09:30pm W 24 29 - - - - - - - 11.2 1009.0 0.2
15/09:00pm W 23 27 - - - - - - - 11.4 1009.1 0.2
15/08:30pm WNW 24 27 - - - - - - - 11.6 1009.5 0.2
15/08:00pm WNW 21 25 - - - - - - - 11.7 1009.4 0.2
15/07:30pm WNW 20 23 - - - - - - - 11.8 1009.6 0.2
15/07:00pm WNW 20 24 - - - - - - - 11.8 1009.2 0.2
15/06:30pm NW 19 23 - - - - - - - 11.8 1009.5 0.2

Other formats

Comma delimited format used in spreadsheet applications
http://www.bom.gov.au/fwo/IDV60701/IDV60701.95964.axf

JavaScript Object Notation format (JSON) in row-major order
http://www.bom.gov.au/fwo/IDV60701/IDV60701.95964.json

Data quality

Most of these data are generated automatically and are frequently updated. Quality checks on data are not normally performed. It is possible for incorrect values to appear. Refer to information at About Latest Weather Observations and please check the disclaimer before using these data.